Time;durP1;ratioP1;P1;durP2;ratioP2;P2;SDS_P1;SDS_P2;PMS_P1;PMS_P2;Temp;Humidity;BMP_temperature;BMP_pressure;BME280_temperature;BME280_humidity;BME280_pressure;Samples;Min_cycle;Max_cycle;Signal;HPM_P1;HPM_P2
2022/05/16 00:00:25;;;;;;;6.28;1.70;;;;;;;;;;4957414;28;20046;-75
2022/05/16 00:02:51;;;;;;;6.85;2.00;;;;;;;;;;4973220;28;20057;-74
2022/05/16 00:05:17;;;;;;;5.60;1.80;;;;;;;;;;4957350;28;20030;-73
2022/05/16 00:07:43;;;;;;;7.60;2.20;;;;;;;;;;4959527;28;20041;-74
2022/05/16 00:10:09;;;;;;;4.65;1.83;;;;;;;;;;4958522;28;20043;-74
2022/05/16 00:12:34;;;;;;;2.45;1.42;;;;;;;;;;4958392;28;21724;-74
2022/05/16 00:15:00;;;;;;;3.97;1.77;;;;;;;;;;4959044;28;20605;-73
2022/05/16 00:17:26;;;;;;;5.82;1.98;;;;;;;;;;4958091;28;20037;-74
2022/05/16 00:19:52;;;;;;;3.53;1.92;;;;;;;;;;4962942;28;21945;-72
2022/05/16 00:22:17;;;;;;;3.88;1.90;;;;;;;;;;4963650;28;20514;-74
2022/05/16 00:24:44;;;;;;;4.78;2.00;;;;;;;;;;4964004;28;20124;-74
2022/05/16 00:27:11;;;;;;;2.78;1.67;;;;;;;;;;4962469;28;20042;-74
2022/05/16 00:29:37;;;;;;;2.78;1.60;;;;;;;;;;4962007;28;20431;-75
2022/05/16 00:32:04;;;;;;;3.60;1.88;;;;;;;;;;4962728;28;20038;-74
2022/05/16 00:34:29;;;;;;;2.67;1.55;;;;;;;;;;4961300;28;20430;-74
2022/05/16 00:36:55;;;;;;;4.13;1.85;;;;;;;;;;4962912;28;20043;-73
2022/05/16 00:39:23;;;;;;;5.22;1.80;;;;;;;;;;4961448;28;20472;-73
2022/05/16 00:41:50;;;;;;;4.32;1.73;;;;;;;;;;4973835;28;20046;-73
2022/05/16 00:44:16;;;;;;;3.22;1.70;;;;;;;;;;4959630;28;20034;-75
2022/05/16 00:46:41;;;;;;;3.65;1.77;;;;;;;;;;4960702;28;20038;-74
2022/05/16 00:49:13;;;;;;;5.15;1.98;;;;;;;;;;4960193;28;20046;-74
2022/05/16 00:51:45;;;;;;;5.55;1.85;;;;;;;;;;4960152;28;20093;-73
2022/05/16 00:54:19;;;;;;;7.22;1.90;;;;;;;;;;4959412;28;20141;-74
2022/05/16 00:56:46;;;;;;;3.20;2.03;;;;;;;;;;4960381;28;20160;-73
2022/05/16 00:59:12;;;;;;;3.28;1.80;;;;;;;;;;4960140;28;20070;-73
2022/05/16 01:07:09;;;;;;;4.25;2.08;;;;;;;;;;4960705;28;20104;-72
2022/05/16 01:09:35;;;;;;;4.40;2.38;;;;;;;;;;4962722;28;20465;-73
2022/05/16 01:12:01;;;;;;;2.65;2.00;;;;;;;;;;4965225;28;20051;-73
2022/05/16 01:14:50;;;;;;;4.88;1.92;;;;;;;;;;4977222;28;20044;-72
2022/05/16 01:17:17;;;;;;;5.57;1.80;;;;;;;;;;4963039;28;20044;-72
2022/05/16 01:19:42;;;;;;;4.88;2.10;;;;;;;;;;4962805;28;20026;-75
2022/05/16 01:22:24;;;;;;;3.50;2.03;;;;;;;;;;4963330;28;20523;-74
2022/05/16 01:24:55;;;;;;;4.57;1.83;;;;;;;;;;4965238;28;20030;-74
2022/05/16 01:27:21;;;;;;;3.67;2.05;;;;;;;;;;4960141;28;20042;-75
2022/05/16 01:29:48;;;;;;;4.85;2.00;;;;;;;;;;4960808;28;20043;-73
2022/05/16 01:32:14;;;;;;;7.10;2.25;;;;;;;;;;4959075;28;20042;-74
2022/05/16 01:34:40;;;;;;;5.30;1.88;;;;;;;;;;4960765;28;20065;-74
2022/05/16 01:37:07;;;;;;;4.55;1.60;;;;;;;;;;4960697;28;20027;-73
2022/05/16 01:39:32;;;;;;;4.78;1.90;;;;;;;;;;4959516;28;20570;-73
2022/05/16 01:41:57;;;;;;;4.57;2.17;;;;;;;;;;4960241;28;20046;-74
2022/05/16 01:44:23;;;;;;;3.22;1.90;;;;;;;;;;4959341;28;20055;-73
2022/05/16 01:46:48;;;;;;;5.55;2.28;;;;;;;;;;4962558;28;20378;-72
2022/05/16 01:49:14;;;;;;;4.30;2.22;;;;;;;;;;4959487;28;20050;-72
2022/05/16 01:51:40;;;;;;;4.20;2.15;;;;;;;;;;4961248;28;20405;-75
2022/05/16 01:54:06;;;;;;;3.88;2.08;;;;;;;;;;4972258;28;20038;-75
2022/05/16 01:56:33;;;;;;;4.20;2.10;;;;;;;;;;4958963;28;20031;-74
2022/05/16 01:59:01;;;;;;;3.45;2.00;;;;;;;;;;4962541;28;20042;-75
2022/05/16 02:01:29;;;;;;;3.50;2.17;;;;;;;;;;4961577;28;20035;-74
2022/05/16 02:03:55;;;;;;;5.03;2.20;;;;;;;;;;4961468;28;20410;-74
2022/05/16 02:06:21;;;;;;;5.15;2.10;;;;;;;;;;4963299;28;20034;-73
2022/05/16 02:08:48;;;;;;;2.60;1.70;;;;;;;;;;4960139;28;20096;-75
2022/05/16 02:11:14;;;;;;;3.10;1.83;;;;;;;;;;4974328;28;20034;-75
2022/05/16 02:13:42;;;;;;;4.57;1.77;;;;;;;;;;4967825;28;20018;-74
2022/05/16 02:16:08;;;;;;;4.72;2.08;;;;;;;;;;4960805;28;20487;-72
2022/05/16 02:18:34;;;;;;;3.13;2.00;;;;;;;;;;4962517;28;20678;-74
2022/05/16 02:26:28;;;;;;;3.88;2.22;;;;;;;;;;4960033;28;20041;-75
2022/05/16 02:28:53;;;;;;;5.43;1.90;;;;;;;;;;4959284;28;20062;-76
2022/05/16 02:31:22;;;;;;;4.20;1.77;;;;;;;;;;4972432;28;20498;-74
2022/05/16 02:33:48;;;;;;;4.40;2.17;;;;;;;;;;4959214;28;20039;-74
2022/05/16 02:36:15;;;;;;;3.90;1.45;;;;;;;;;;4958484;28;20043;-75
2022/05/16 02:38:41;;;;;;;5.50;2.47;;;;;;;;;;4958538;28;20050;-74
2022/05/16 02:41:07;;;;;;;4.13;1.90;;;;;;;;;;4958493;28;20249;-74
2022/05/16 02:43:32;;;;;;;4.53;1.85;;;;;;;;;;4959565;28;20061;-74
2022/05/16 02:45:58;;;;;;;2.83;1.63;;;;;;;;;;4959672;28;20136;-73
2022/05/16 02:48:23;;;;;;;3.13;1.90;;;;;;;;;;4957817;28;20042;-73
2022/05/16 02:50:48;;;;;;;3.40;1.83;;;;;;;;;;4959777;28;21407;-74
2022/05/16 02:53:14;;;;;;;5.63;2.00;;;;;;;;;;4957512;28;20034;-75
2022/05/16 02:55:40;;;;;;;5.20;1.92;;;;;;;;;;4958115;28;20026;-72
2022/05/16 02:58:09;;;;;;;4.07;1.90;;;;;;;;;;4958610;28;20045;-73
2022/05/16 03:00:35;;;;;;;4.80;1.77;;;;;;;;;;4958061;28;20557;-75
2022/05/16 03:03:01;;;;;;;6.53;2.38;;;;;;;;;;4957787;28;20042;-74
2022/05/16 03:05:26;;;;;;;8.27;2.10;;;;;;;;;;4956996;28;20025;-74
2022/05/16 03:07:51;;;;;;;4.70;2.10;;;;;;;;;;4956661;28;23008;-74
2022/05/16 03:10:17;;;;;;;6.30;2.03;;;;;;;;;;4955035;28;20042;-73
2022/05/16 03:12:45;;;;;;;4.72;2.13;;;;;;;;;;4957604;28;20096;-75
2022/05/16 03:15:12;;;;;;;4.97;2.10;;;;;;;;;;4957039;28;20906;-74
2022/05/16 03:17:38;;;;;;;4.32;1.88;;;;;;;;;;4957516;28;20513;-74
2022/05/16 03:20:06;;;;;;;6.10;2.45;;;;;;;;;;4958888;28;20031;-73
2022/05/16 03:22:31;;;;;;;4.93;2.20;;;;;;;;;;4958077;28;20694;-74
2022/05/16 03:24:57;;;;;;;4.85;2.10;;;;;;;;;;4971519;28;20042;-73
2022/05/16 03:27:22;;;;;;;5.32;2.17;;;;;;;;;;4957528;28;20391;-74
2022/05/16 03:29:49;;;;;;;4.57;2.03;;;;;;;;;;4958775;28;20084;-74
2022/05/16 03:32:15;;;;;;;4.47;2.28;;;;;;;;;;4958645;28;20034;-74
2022/05/16 03:34:40;;;;;;;2.97;1.83;;;;;;;;;;4959388;28;20050;-74
2022/05/16 03:37:06;;;;;;;5.63;2.25;;;;;;;;;;4958566;28;20030;-73
2022/05/16 03:42:15;;;;;;;5.07;2.05;;;;;;;;;;4956669;28;20519;-74
2022/05/16 03:44:40;;;;;;;4.95;2.10;;;;;;;;;;4946931;28;20050;-73
2022/05/16 03:47:06;;;;;;;4.35;1.98;;;;;;;;;;4958875;28;20034;-73
2022/05/16 03:49:31;;;;;;;6.18;2.20;;;;;;;;;;4958118;28;20046;-74
2022/05/16 03:51:59;;;;;;;4.20;2.35;;;;;;;;;;4957652;28;20081;-74
2022/05/16 03:54:24;;;;;;;4.25;1.90;;;;;;;;;;4960793;28;20384;-72
2022/05/16 03:56:50;;;;;;;4.97;2.10;;;;;;;;;;4964240;28;20274;-75
2022/05/16 03:59:15;;;;;;;6.18;2.38;;;;;;;;;;4962610;28;20459;-74
2022/05/16 04:01:41;;;;;;;5.75;2.45;;;;;;;;;;4960656;28;20034;-74
2022/05/16 04:04:06;;;;;;;7.13;2.13;;;;;;;;;;4961674;28;20776;-73
2022/05/16 04:06:34;;;;;;;4.43;2.13;;;;;;;;;;4960445;28;20399;-73
2022/05/16 04:09:00;;;;;;;7.32;2.60;;;;;;;;;;4959975;28;20371;-73
2022/05/16 04:11:26;;;;;;;6.78;2.20;;;;;;;;;;4959244;28;20061;-74
2022/05/16 04:13:51;;;;;;;6.95;2.35;;;;;;;;;;4965721;28;20030;-74
2022/05/16 04:16:17;;;;;;;7.50;2.22;;;;;;;;;;4975913;28;20164;-73
2022/05/16 04:18:44;;;;;;;5.53;2.00;;;;;;;;;;4963239;28;20043;-74
2022/05/16 04:21:10;;;;;;;4.30;2.40;;;;;;;;;;4960983;28;20070;-73
2022/05/16 04:23:35;;;;;;;5.60;2.28;;;;;;;;;;4961801;28;20188;-74
2022/05/16 04:26:01;;;;;;;6.88;2.45;;;;;;;;;;4961596;28;20034;-73
2022/05/16 04:28:26;;;;;;;5.32;2.33;;;;;;;;;;4959686;28;20256;-73
2022/05/16 04:30:51;;;;;;;4.20;2.22;;;;;;;;;;4961620;28;20097;-74
2022/05/16 04:33:18;;;;;;;5.10;2.10;;;;;;;;;;4958880;28;20146;-74
2022/05/16 04:35:43;;;;;;;5.68;2.30;;;;;;;;;;4963285;28;20058;-73
2022/05/16 04:38:08;;;;;;;4.18;2.28;;;;;;;;;;4961953;28;20066;-74
2022/05/16 04:40:34;;;;;;;4.63;2.35;;;;;;;;;;4960156;28;20046;-73
2022/05/16 04:43:00;;;;;;;8.43;2.50;;;;;;;;;;4959635;28;20042;-73
2022/05/16 04:45:29;;;;;;;7.30;2.22;;;;;;;;;;4960482;28;20675;-74
2022/05/16 04:48:00;;;;;;;6.45;2.40;;;;;;;;;;4961350;28;20039;-73
2022/05/16 04:50:28;;;;;;;3.50;2.10;;;;;;;;;;4960892;28;20037;-74
2022/05/16 04:52:54;;;;;;;7.72;2.25;;;;;;;;;;4961865;28;20034;-74
2022/05/16 04:55:19;;;;;;;4.22;2.25;;;;;;;;;;4960726;28;20462;-74
2022/05/16 04:57:45;;;;;;;6.88;2.53;;;;;;;;;;4960742;28;20070;-74
2022/05/16 05:00:12;;;;;;;5.18;2.30;;;;;;;;;;4960750;28;20093;-74
2022/05/16 05:02:38;;;;;;;4.90;1.95;;;;;;;;;;4961673;28;20137;-74
2022/05/16 05:05:05;;;;;;;5.40;2.40;;;;;;;;;;4962059;28;20108;-75
2022/05/16 05:07:30;;;;;;;4.13;2.08;;;;;;;;;;4961385;28;20166;-73
2022/05/16 05:15:24;;;;;;;4.78;2.50;;;;;;;;;;4959078;28;20157;-72
2022/05/16 05:17:50;;;;;;;7.45;2.60;;;;;;;;;;4959925;28;20046;-74
2022/05/16 05:20:16;;;;;;;6.80;2.53;;;;;;;;;;4959072;28;20292;-73
2022/05/16 05:22:46;;;;;;;10.38;2.85;;;;;;;;;;4961915;28;20062;-74
2022/05/16 05:25:15;;;;;;;9.00;2.60;;;;;;;;;;4959124;28;20039;-73
2022/05/16 05:27:41;;;;;;;5.82;2.28;;;;;;;;;;4961292;28;20042;-74
2022/05/16 05:30:09;;;;;;;4.32;2.40;;;;;;;;;;4958786;28;20042;-75
2022/05/16 05:32:35;;;;;;;8.77;2.53;;;;;;;;;;4959959;28;20708;-74
2022/05/16 05:35:02;;;;;;;4.65;2.45;;;;;;;;;;4959437;28;20482;-73
2022/05/16 05:37:27;;;;;;;8.80;2.80;;;;;;;;;;4955974;28;20043;-74
2022/05/16 05:39:54;;;;;;;12.05;2.63;;;;;;;;;;4959703;28;20375;-73
2022/05/16 05:42:19;;;;;;;11.82;3.08;;;;;;;;;;4958022;28;20558;-73
2022/05/16 05:44:45;;;;;;;6.40;2.67;;;;;;;;;;4962816;28;20045;-74
2022/05/16 05:47:10;;;;;;;6.75;2.65;;;;;;;;;;4961595;28;20034;-74
2022/05/16 05:49:36;;;;;;;6.53;2.80;;;;;;;;;;4960827;28;20042;-72
2022/05/16 05:52:03;;;;;;;5.63;2.70;;;;;;;;;;4959070;28;20121;-73
2022/05/16 05:54:28;;;;;;;8.57;2.63;;;;;;;;;;4958722;28;20719;-75
2022/05/16 05:56:53;;;;;;;8.68;3.70;;;;;;;;;;4960380;28;20406;-73
2022/05/16 05:59:19;;;;;;;8.63;3.03;;;;;;;;;;4957605;28;22616;-73
2022/05/16 06:01:44;;;;;;;6.53;2.90;;;;;;;;;;4961461;28;20112;-72
2022/05/16 06:04:09;;;;;;;4.80;2.50;;;;;;;;;;4958746;28;22848;-74
2022/05/16 06:06:35;;;;;;;6.43;2.50;;;;;;;;;;4958597;28;20050;-72
2022/05/16 06:09:00;;;;;;;6.97;2.85;;;;;;;;;;4958930;28;20585;-74
2022/05/16 06:11:28;;;;;;;5.40;2.92;;;;;;;;;;4960109;28;20038;-73
2022/05/16 06:13:55;;;;;;;6.15;2.55;;;;;;;;;;4959422;28;20038;-73
2022/05/16 06:16:21;;;;;;;7.38;3.25;;;;;;;;;;4957771;28;20047;-73
2022/05/16 06:18:46;;;;;;;8.90;2.97;;;;;;;;;;4956806;28;20454;-73
2022/05/16 06:21:11;;;;;;;9.80;2.70;;;;;;;;;;4959624;28;20113;-74
2022/05/16 06:23:37;;;;;;;6.68;2.97;;;;;;;;;;4958047;28;20042;-72
2022/05/16 06:26:02;;;;;;;6.13;2.60;;;;;;;;;;4959149;28;20398;-73
2022/05/16 06:28:29;;;;;;;9.63;3.00;;;;;;;;;;4958373;28;20053;-73
2022/05/16 06:30:56;;;;;;;11.40;3.00;;;;;;;;;;4960438;28;20053;-73
2022/05/16 06:33:22;;;;;;;10.48;2.83;;;;;;;;;;4959210;28;20507;-72
2022/05/16 06:35:49;;;;;;;9.00;3.08;;;;;;;;;;4958179;28;21230;-72
2022/05/16 06:38:22;;;;;;;8.68;2.78;;;;;;;;;;4962962;28;20478;-74
2022/05/16 06:40:48;;;;;;;7.78;3.22;;;;;;;;;;4959056;28;20023;-74
2022/05/16 06:43:15;;;;;;;7.07;2.83;;;;;;;;;;4958717;28;20034;-73
2022/05/16 06:45:41;;;;;;;7.50;2.90;;;;;;;;;;4957220;28;20502;-73
2022/05/16 06:48:07;;;;;;;12.60;3.47;;;;;;;;;;4958454;28;20125;-73
2022/05/16 06:50:35;;;;;;;12.35;2.70;;;;;;;;;;4955893;28;20491;-73
2022/05/16 06:53:03;;;;;;;11.38;3.50;;;;;;;;;;4957558;28;20438;-73
2022/05/16 06:55:28;;;;;;;13.93;6.63;;;;;;;;;;4956362;28;20100;-72
2022/05/16 06:57:54;;;;;;;9.10;3.70;;;;;;;;;;4958494;28;20040;-71
2022/05/16 07:00:19;;;;;;;5.78;2.90;;;;;;;;;;4954464;28;20121;-73
2022/05/16 07:02:46;;;;;;;11.57;3.47;;;;;;;;;;4957540;28;20591;-74
2022/05/16 07:05:11;;;;;;;9.43;2.80;;;;;;;;;;4959073;28;20031;-73
2022/05/16 07:07:37;;;;;;;11.68;3.28;;;;;;;;;;4958477;28;20410;-74
2022/05/16 07:10:04;;;;;;;8.05;3.35;;;;;;;;;;4956869;28;20129;-72
2022/05/16 07:12:29;;;;;;;10.23;3.10;;;;;;;;;;4957823;28;20533;-73
2022/05/16 07:14:54;;;;;;;11.38;4.18;;;;;;;;;;4958797;28;20034;-73
2022/05/16 07:17:20;;;;;;;12.13;4.18;;;;;;;;;;4957203;28;20034;-72
2022/05/16 07:19:46;;;;;;;11.45;3.75;;;;;;;;;;4957253;28;20026;-72
2022/05/16 07:22:19;;;;;;;12.85;3.67;;;;;;;;;;4959958;28;20062;-75
2022/05/16 07:24:45;;;;;;;11.07;3.95;;;;;;;;;;4956066;28;20038;-71
2022/05/16 07:29:56;;;;;;;7.82;2.53;;;;;;;;;;4962265;28;20053;-72
2022/05/16 07:32:21;;;;;;;12.60;3.10;;;;;;;;;;4959813;28;20038;-73
2022/05/16 07:34:47;;;;;;;7.70;3.40;;;;;;;;;;4959499;28;20034;-73
2022/05/16 07:37:13;;;;;;;11.32;3.60;;;;;;;;;;4960815;28;20372;-73
2022/05/16 07:39:39;;;;;;;7.72;3.30;;;;;;;;;;4960367;28;20047;-73
2022/05/16 07:42:07;;;;;;;10.38;2.90;;;;;;;;;;4960536;28;21209;-74
2022/05/16 07:44:34;;;;;;;14.05;3.15;;;;;;;;;;4959146;28;20218;-73
2022/05/16 07:47:00;;;;;;;7.18;2.85;;;;;;;;;;4966556;28;20112;-74
2022/05/16 07:49:25;;;;;;;8.63;2.58;;;;;;;;;;4975250;28;20038;-73
2022/05/16 07:51:51;;;;;;;8.30;3.00;;;;;;;;;;4960338;28;20038;-74
2022/05/16 07:54:17;;;;;;;12.82;2.92;;;;;;;;;;4959925;28;20058;-73
2022/05/16 07:56:42;;;;;;;13.10;2.55;;;;;;;;;;4960484;28;20071;-73
2022/05/16 07:59:09;;;;;;;7.25;2.70;;;;;;;;;;4975749;28;20478;-73
2022/05/16 08:01:36;;;;;;;8.20;2.80;;;;;;;;;;4961266;28;20069;-72
2022/05/16 08:04:02;;;;;;;11.65;3.00;;;;;;;;;;4960568;28;20473;-72
2022/05/16 08:06:28;;;;;;;9.93;3.63;;;;;;;;;;4961519;28;20065;-73
2022/05/16 08:11:38;;;;;;;10.82;2.65;;;;;;;;;;4967282;28;20162;-73
2022/05/16 08:14:04;;;;;;;8.88;2.50;;;;;;;;;;4960650;28;20378;-72
2022/05/16 08:16:30;;;;;;;14.48;2.80;;;;;;;;;;4956889;28;20046;-71
2022/05/16 08:18:55;;;;;;;11.05;3.17;;;;;;;;;;4959184;28;20043;-73
2022/05/16 08:21:21;;;;;;;5.40;2.25;;;;;;;;;;4960041;28;20463;-71
2022/05/16 08:23:46;;;;;;;6.13;2.72;;;;;;;;;;4958840;28;20046;-73
2022/05/16 08:26:11;;;;;;;6.30;2.03;;;;;;;;;;4960381;28;20027;-72
2022/05/16 08:28:38;;;;;;;6.55;2.70;;;;;;;;;;4959308;28;20096;-75
2022/05/16 08:31:04;;;;;;;4.68;2.58;;;;;;;;;;4961942;28;20094;-73
2022/05/16 08:33:29;;;;;;;8.93;2.80;;;;;;;;;;4958567;28;20582;-73
2022/05/16 08:41:28;;;;;;;8.88;3.05;;;;;;;;;;4960320;28;20147;-73
2022/05/16 08:44:20;;;;;;;10.60;2.88;;;;;;;;;;4960858;28;20607;-73
2022/05/16 08:46:55;;;;;;;7.75;2.83;;;;;;;;;;4960297;28;20504;-72
2022/05/16 08:49:36;;;;;;;5.75;2.20;;;;;;;;;;4960091;28;20529;-72
2022/05/16 08:52:09;;;;;;;9.05;2.55;;;;;;;;;;4960179;28;20035;-74
2022/05/16 08:54:42;;;;;;;12.25;2.90;;;;;;;;;;4958458;28;20042;-73
2022/05/16 08:57:13;;;;;;;9.10;3.08;;;;;;;;;;4960018;28;20125;-73
2022/05/16 08:59:43;;;;;;;12.30;2.90;;;;;;;;;;4958488;28;20437;-74
2022/05/16 09:02:17;;;;;;;6.50;3.08;;;;;;;;;;4960097;28;20045;-72
2022/05/16 09:04:58;;;;;;;10.68;2.92;;;;;;;;;;4958246;28;20057;-73
2022/05/16 09:07:29;;;;;;;6.25;2.80;;;;;;;;;;4956497;28;20065;-72
2022/05/16 09:10:04;;;;;;;7.35;2.50;;;;;;;;;;4957006;28;20429;-73
2022/05/16 09:12:41;;;;;;;13.85;2.72;;;;;;;;;;4962154;28;20046;-73
2022/05/16 09:15:31;;;;;;;6.07;2.63;;;;;;;;;;4957263;28;20655;-74
2022/05/16 09:18:47;;;;;;;14.13;3.25;;;;;;;;;;4957464;28;20047;-72
2022/05/16 09:21:19;;;;;;;7.88;2.50;;;;;;;;;;4938501;28;20042;-74
2022/05/16 09:24:00;;;;;;;10.15;3.00;;;;;;;;;;4959146;28;20607;-74
2022/05/16 09:26:34;;;;;;;7.72;2.70;;;;;;;;;;4957220;28;20032;-73
2022/05/16 09:29:22;;;;;;;7.28;2.25;;;;;;;;;;4959030;28;20030;-72
2022/05/16 09:31:50;;;;;;;8.38;2.88;;;;;;;;;;4956025;28;20050;-73
2022/05/16 09:34:17;;;;;;;8.60;2.60;;;;;;;;;;4960444;28;20073;-74
2022/05/16 09:36:45;;;;;;;5.78;2.75;;;;;;;;;;4956142;28;20046;-72
2022/05/16 09:39:16;;;;;;;8.52;2.53;;;;;;;;;;4959832;28;20388;-72
2022/05/16 09:42:02;;;;;;;11.43;3.00;;;;;;;;;;4958838;28;20054;-74
2022/05/16 09:44:41;;;;;;;10.60;2.75;;;;;;;;;;4961114;28;20031;-73
2022/05/16 09:47:22;;;;;;;6.78;2.65;;;;;;;;;;4958128;28;20062;-72
2022/05/16 09:50:24;;;;;;;5.82;2.50;;;;;;;;;;4958797;28;20050;-73
2022/05/16 09:53:01;;;;;;;8.88;2.90;;;;;;;;;;4919128;28;20053;-72
2022/05/16 09:55:34;;;;;;;9.93;3.42;;;;;;;;;;4957230;28;20046;-73
2022/05/16 09:58:03;;;;;;;8.43;3.03;;;;;;;;;;4958749;28;21129;-72
2022/05/16 10:00:38;;;;;;;5.88;2.63;;;;;;;;;;4958935;28;20054;-73
2022/05/16 10:03:27;;;;;;;6.65;2.35;;;;;;;;;;4956252;28;20204;-73
2022/05/16 10:05:53;;;;;;;4.85;2.50;;;;;;;;;;4956919;28;20112;-73
2022/05/16 10:08:34;;;;;;;4.93;2.50;;;;;;;;;;4955787;28;20389;-73
2022/05/16 10:11:03;;;;;;;9.90;2.83;;;;;;;;;;4958941;28;20018;-72
2022/05/16 10:13:29;;;;;;;4.10;2.50;;;;;;;;;;4958433;28;20038;-74
2022/05/16 10:15:57;;;;;;;6.60;2.60;;;;;;;;;;4958350;28;20058;-70
2022/05/16 10:18:24;;;;;;;9.02;3.08;;;;;;;;;;4957330;28;20045;-73
2022/05/16 10:21:03;;;;;;;8.40;2.60;;;;;;;;;;4959746;28;20192;-72
2022/05/16 10:23:34;;;;;;;5.90;2.97;;;;;;;;;;4961048;28;20160;-73
2022/05/16 10:26:12;;;;;;;8.45;3.03;;;;;;;;;;4957099;28;20027;-71
2022/05/16 10:28:43;;;;;;;6.53;2.50;;;;;;;;;;4958592;28;20169;-72
2022/05/16 10:34:09;;;;;;;6.82;2.83;;;;;;;;;;4959220;28;20053;-71
2022/05/16 10:36:36;;;;;;;9.88;2.78;;;;;;;;;;4957258;28;20372;-72
2022/05/16 10:39:09;;;;;;;4.13;2.80;;;;;;;;;;4957769;28;20665;-71
2022/05/16 10:41:54;;;;;;;7.05;3.05;;;;;;;;;;4958766;28;20414;-71
2022/05/16 10:45:04;;;;;;;5.78;3.30;;;;;;;;;;4961244;28;20034;-74
2022/05/16 10:47:36;;;;;;;9.77;2.88;;;;;;;;;;4935766;28;20097;-73
2022/05/16 10:50:08;;;;;;;7.82;3.10;;;;;;;;;;4956933;28;20414;-71
2022/05/16 10:52:40;;;;;;;6.95;2.90;;;;;;;;;;4955991;28;20539;-71
2022/05/16 10:55:06;;;;;;;6.32;3.08;;;;;;;;;;4958064;28;20038;-72
2022/05/16 10:57:47;;;;;;;3.78;2.60;;;;;;;;;;4959412;28;20095;-71
2022/05/16 11:00:18;;;;;;;6.38;3.10;;;;;;;;;;4956909;28;20039;-72
2022/05/16 11:03:17;;;;;;;6.38;3.22;;;;;;;;;;4956407;28;21539;-72
2022/05/16 11:06:04;;;;;;;10.32;3.20;;;;;;;;;;4959026;28;20874;-73
2022/05/16 11:08:47;;;;;;;5.75;3.75;;;;;;;;;;4958598;28;20038;-72
2022/05/16 11:11:33;;;;;;;8.95;2.90;;;;;;;;;;4959548;28;20406;-73
2022/05/16 11:14:08;;;;;;;8.77;2.97;;;;;;;;;;4957335;28;20133;-72
2022/05/16 11:16:38;;;;;;;9.57;3.83;;;;;;;;;;4958448;28;20038;-72
2022/05/16 11:19:13;;;;;;;10.70;3.75;;;;;;;;;;4959369;28;20498;-72
2022/05/16 11:22:18;;;;;;;10.95;4.15;;;;;;;;;;4956804;28;20513;-73
2022/05/16 11:25:09;;;;;;;15.18;3.42;;;;;;;;;;4959383;28;20530;-72
2022/05/16 11:27:55;;;;;;;17.75;4.07;;;;;;;;;;4958122;28;20510;-75
2022/05/16 11:30:24;;;;;;;7.60;2.58;;;;;;;;;;4956152;28;20413;-73
2022/05/16 11:33:17;;;;;;;13.68;3.55;;;;;;;;;;4958709;28;20566;-71
2022/05/16 11:35:49;;;;;;;14.38;3.70;;;;;;;;;;4957952;28;20053;-74
2022/05/16 11:38:24;;;;;;;13.23;4.53;;;;;;;;;;4958560;28;20044;-73
2022/05/16 11:41:20;;;;;;;11.27;4.00;;;;;;;;;;4958798;28;20958;-74
2022/05/16 11:43:51;;;;;;;12.38;4.88;;;;;;;;;;4959153;28;20379;-73
2022/05/16 11:46:37;;;;;;;19.58;5.20;;;;;;;;;;4957387;28;20064;-72
2022/05/16 11:49:20;;;;;;;11.52;4.68;;;;;;;;;;4951219;28;20043;-72
2022/05/16 11:52:22;;;;;;;10.77;3.85;;;;;;;;;;4958683;28;20177;-72
2022/05/16 11:54:57;;;;;;;12.55;4.47;;;;;;;;;;4958828;28;20461;-74
2022/05/16 12:02:52;;;;;;;6.47;3.30;;;;;;;;;;4960281;28;20521;-73
2022/05/16 12:05:20;;;;;;;8.75;2.78;;;;;;;;;;4962795;28;20040;-74
2022/05/16 12:07:48;;;;;;;10.77;3.67;;;;;;;;;;4958107;28;20026;-73
2022/05/16 12:10:14;;;;;;;6.13;3.38;;;;;;;;;;4956340;28;20089;-73
2022/05/16 12:12:42;;;;;;;6.15;2.88;;;;;;;;;;4956365;28;20043;-73
2022/05/16 12:15:16;;;;;;;8.30;3.10;;;;;;;;;;4960600;28;20133;-75
2022/05/16 12:18:07;;;;;;;9.23;2.70;;;;;;;;;;4958631;28;20129;-73
2022/05/16 12:20:35;;;;;;;7.53;3.30;;;;;;;;;;4962460;28;20201;-73
2022/05/16 12:23:00;;;;;;;7.00;3.17;;;;;;;;;;4959649;28;20117;-73
2022/05/16 12:25:27;;;;;;;5.82;2.90;;;;;;;;;;4960706;28;20146;-72
2022/05/16 12:28:11;;;;;;;7.07;3.30;;;;;;;;;;4958820;28;20134;-74
2022/05/16 12:30:37;;;;;;;4.78;2.95;;;;;;;;;;4956839;28;20045;-74
2022/05/16 12:33:02;;;;;;;7.03;3.05;;;;;;;;;;4959420;28;20042;-73
2022/05/16 12:35:28;;;;;;;6.22;2.90;;;;;;;;;;4956225;28;20114;-73
2022/05/16 12:37:54;;;;;;;10.88;3.58;;;;;;;;;;4959228;28;20896;-72
2022/05/16 12:41:02;;;;;;;9.70;2.83;;;;;;;;;;4958712;28;20124;-73
2022/05/16 12:43:43;;;;;;;6.60;2.70;;;;;;;;;;4960124;28;20042;-73
2022/05/16 12:46:12;;;;;;;4.38;2.30;;;;;;;;;;4962738;28;20046;-73
2022/05/16 12:49:08;;;;;;;5.63;2.08;;;;;;;;;;4961475;28;20047;-72
2022/05/16 12:52:01;;;;;;;7.15;2.92;;;;;;;;;;4959603;28;20196;-72
2022/05/16 12:55:04;;;;;;;;;;;;;;;;;;4960979;28;20384;-72
2022/05/16 12:57:46;;;;;;;4.75;2.15;;;;;;;;;;4902374;29;19922;-72
2022/05/16 13:00:20;;;;;;;6.30;1.77;;;;;;;;;;4902620;29;20595;-72
2022/05/16 13:02:47;;;;;;;11.07;2.40;;;;;;;;;;4937505;28;20047;-72
2022/05/16 13:05:32;;;;;;;6.60;2.28;;;;;;;;;;4959037;28;20473;-71
2022/05/16 13:08:09;;;;;;;6.93;1.98;;;;;;;;;;4958602;28;20034;-73
2022/05/16 13:10:59;;;;;;;7.75;2.00;;;;;;;;;;4959628;28;20662;-73
2022/05/16 13:13:56;;;;;;;10.45;2.22;;;;;;;;;;4958516;28;20031;-73
2022/05/16 13:16:29;;;;;;;6.55;2.20;;;;;;;;;;4955837;28;20163;-73
2022/05/16 13:19:03;;;;;;;5.30;2.20;;;;;;;;;;4972161;28;20054;-73
2022/05/16 13:21:49;;;;;;;4.75;1.85;;;;;;;;;;4957445;28;20058;-73
2022/05/16 13:24:15;;;;;;;5.15;2.10;;;;;;;;;;4957042;28;20038;-73
2022/05/16 13:29:34;;;;;;;5.07;1.83;;;;;;;;;;4952963;28;20613;-73
2022/05/16 13:32:17;;;;;;;6.13;1.80;;;;;;;;;;4957344;28;20041;-73
2022/05/16 13:34:44;;;;;;;6.93;1.80;;;;;;;;;;4955311;28;20057;-71
2022/05/16 13:37:11;;;;;;;4.82;1.70;;;;;;;;;;4954355;28;20046;-73
2022/05/16 13:39:40;;;;;;;4.60;2.10;;;;;;;;;;4958428;28;20097;-72
2022/05/16 13:42:06;;;;;;;6.40;2.03;;;;;;;;;;4959180;28;20094;-73
2022/05/16 13:44:40;;;;;;;9.15;2.08;;;;;;;;;;4957319;28;20057;-72
2022/05/16 13:47:10;;;;;;;5.00;2.45;;;;;;;;;;4957688;28;20030;-72
2022/05/16 13:49:36;;;;;;;4.82;1.95;;;;;;;;;;4958364;28;20039;-74
2022/05/16 13:52:03;;;;;;;6.72;2.03;;;;;;;;;;4957452;28;20053;-72
2022/05/16 13:54:32;;;;;;;3.45;1.70;;;;;;;;;;4957858;28;20047;-72
2022/05/16 13:57:06;;;;;;;7.55;2.05;;;;;;;;;;4957338;28;20521;-73
2022/05/16 13:59:34;;;;;;;8.32;2.17;;;;;;;;;;4955981;28;20038;-73
2022/05/16 14:02:08;;;;;;;5.55;2.00;;;;;;;;;;4970235;28;20505;-73
2022/05/16 14:04:50;;;;;;;8.40;2.08;;;;;;;;;;4956101;28;20465;-72
2022/05/16 14:07:21;;;;;;;7.40;2.08;;;;;;;;;;4955869;28;20399;-73
2022/05/16 14:09:51;;;;;;;6.53;2.00;;;;;;;;;;4958373;28;20582;-73
2022/05/16 14:12:36;;;;;;;5.05;1.90;;;;;;;;;;4958435;28;20544;-72
2022/05/16 14:15:08;;;;;;;8.23;2.30;;;;;;;;;;4962062;28;20174;-73
2022/05/16 14:17:39;;;;;;;7.32;2.40;;;;;;;;;;4957447;28;21139;-73
2022/05/16 14:20:11;;;;;;;4.75;2.20;;;;;;;;;;4957006;28;20030;-72
2022/05/16 14:22:42;;;;;;;7.50;2.50;;;;;;;;;;4956787;28;20142;-73
2022/05/16 14:25:13;;;;;;;6.33;2.50;;;;;;;;;;4955747;28;20314;-74
2022/05/16 14:27:43;;;;;;;7.18;2.25;;;;;;;;;;4957173;28;20597;-73
2022/05/16 14:30:23;;;;;;;5.28;2.42;;;;;;;;;;4955336;28;20529;-73
2022/05/16 14:32:57;;;;;;;8.85;2.40;;;;;;;;;;4957216;28;20579;-73
2022/05/16 14:35:27;;;;;;;7.05;2.50;;;;;;;;;;4953155;28;20121;-74
2022/05/16 14:37:54;;;;;;;10.75;2.75;;;;;;;;;;4955530;28;20466;-73
2022/05/16 14:40:23;;;;;;;7.82;2.47;;;;;;;;;;4955997;28;20454;-72
2022/05/16 14:43:06;;;;;;;7.28;2.67;;;;;;;;;;4960377;28;20030;-74
2022/05/16 14:48:37;;;;;;;7.78;2.70;;;;;;;;;;4949392;28;22273;-74
2022/05/16 14:51:07;;;;;;;8.02;2.80;;;;;;;;;;4954549;28;20509;-74
2022/05/16 14:53:32;;;;;;;9.98;3.30;;;;;;;;;;4954803;28;20414;-73
2022/05/16 14:55:59;;;;;;;9.70;2.72;;;;;;;;;;4954903;28;20463;-75
2022/05/16 14:58:25;;;;;;;6.97;2.78;;;;;;;;;;4956446;28;20050;-74
2022/05/16 15:06:20;;;;;;;6.25;2.63;;;;;;;;;;4955882;28;20398;-73
2022/05/16 15:08:51;;;;;;;7.47;3.05;;;;;;;;;;4960132;28;20100;-73
2022/05/16 15:11:23;;;;;;;6.85;2.90;;;;;;;;;;4954669;28;20426;-73
2022/05/16 15:13:49;;;;;;;7.65;3.38;;;;;;;;;;4958958;28;20074;-74
2022/05/16 15:16:14;;;;;;;5.68;3.20;;;;;;;;;;4954291;28;20722;-73
2022/05/16 15:18:40;;;;;;;6.00;3.30;;;;;;;;;;4956284;28;20093;-73
2022/05/16 15:21:06;;;;;;;9.77;3.30;;;;;;;;;;4954832;28;20029;-72
2022/05/16 15:23:33;;;;;;;8.98;3.50;;;;;;;;;;4955460;28;21308;-72
2022/05/16 15:25:59;;;;;;;7.68;3.30;;;;;;;;;;4958053;28;20069;-74
2022/05/16 15:28:25;;;;;;;7.32;3.40;;;;;;;;;;4954913;28;20599;-73
2022/05/16 15:30:50;;;;;;;6.55;3.65;;;;;;;;;;4954547;28;20502;-73
2022/05/16 15:33:16;;;;;;;7.72;3.75;;;;;;;;;;4959953;28;20414;-73
2022/05/16 15:35:44;;;;;;;9.18;3.70;;;;;;;;;;4955147;28;20034;-72
2022/05/16 15:38:11;;;;;;;5.90;3.55;;;;;;;;;;4954387;28;20518;-74
2022/05/16 15:40:39;;;;;;;9.43;3.50;;;;;;;;;;4956501;28;20543;-73
2022/05/16 15:43:05;;;;;;;5.85;3.38;;;;;;;;;;4959088;28;20354;-73
2022/05/16 15:45:32;;;;;;;6.72;3.20;;;;;;;;;;4958251;28;20049;-74
2022/05/16 15:47:58;;;;;;;7.88;3.33;;;;;;;;;;4958737;28;20683;-73